sensor_id;sensor_type;location;lat;lon;timestamp;P1;durP1;ratioP1;P2;durP2;ratioP2
2866;SDS011;1441;48.886;8.728;2023-03-08T00:00:08;4.43;;;3.50;;
2866;SDS011;1441;48.886;8.728;2023-03-08T00:02:39;7.03;;;4.13;;
2866;SDS011;1441;48.886;8.728;2023-03-08T00:05:05;7.47;;;4.43;;
2866;SDS011;1441;48.886;8.728;2023-03-08T00:07:30;5.10;;;3.73;;
2866;SDS011;1441;48.886;8.728;2023-03-08T00:09:56;9.07;;;4.97;;
2866;SDS011;1441;48.886;8.728;2023-03-08T00:12:22;5.80;;;4.10;;
2866;SDS011;1441;48.886;8.728;2023-03-08T00:14:48;6.00;;;4.17;;
2866;SDS011;1441;48.886;8.728;2023-03-08T00:17:14;6.03;;;4.80;;
2866;SDS011;1441;48.886;8.728;2023-03-08T00:19:40;6.10;;;4.30;;
2866;SDS011;1441;48.886;8.728;2023-03-08T00:22:06;7.80;;;4.33;;
2866;SDS011;1441;48.886;8.728;2023-03-08T00:24:32;7.00;;;4.20;;
2866;SDS011;1441;48.886;8.728;2023-03-08T00:26:58;6.20;;;4.37;;
2866;SDS011;1441;48.886;8.728;2023-03-08T00:29:23;5.27;;;4.20;;
2866;SDS011;1441;48.886;8.728;2023-03-08T00:31:49;6.20;;;3.90;;
2866;SDS011;1441;48.886;8.728;2023-03-08T00:34:15;5.10;;;3.60;;
2866;SDS011;1441;48.886;8.728;2023-03-08T00:36:41;4.93;;;4.23;;
2866;SDS011;1441;48.886;8.728;2023-03-08T00:39:07;7.80;;;4.57;;
2866;SDS011;1441;48.886;8.728;2023-03-08T00:41:33;5.93;;;4.27;;
2866;SDS011;1441;48.886;8.728;2023-03-08T00:43:59;5.30;;;4.23;;
2866;SDS011;1441;48.886;8.728;2023-03-08T00:46:24;9.20;;;4.83;;
2866;SDS011;1441;48.886;8.728;2023-03-08T00:48:50;5.80;;;4.07;;
2866;SDS011;1441;48.886;8.728;2023-03-08T00:51:16;4.63;;;3.73;;
2866;SDS011;1441;48.886;8.728;2023-03-08T00:53:44;4.10;;;3.13;;
2866;SDS011;1441;48.886;8.728;2023-03-08T00:56:09;7.23;;;4.03;;
2866;SDS011;1441;48.886;8.728;2023-03-08T00:58:35;6.57;;;4.10;;
2866;SDS011;1441;48.886;8.728;2023-03-08T01:01:03;6.30;;;3.80;;
2866;SDS011;1441;48.886;8.728;2023-03-08T01:03:30;6.07;;;4.00;;
2866;SDS011;1441;48.886;8.728;2023-03-08T01:05:56;4.80;;;3.90;;
2866;SDS011;1441;48.886;8.728;2023-03-08T01:08:23;8.07;;;3.60;;
2866;SDS011;1441;48.886;8.728;2023-03-08T01:10:50;3.50;;;3.10;;
2866;SDS011;1441;48.886;8.728;2023-03-08T01:13:18;3.93;;;3.40;;
2866;SDS011;1441;48.886;8.728;2023-03-08T01:15:45;3.87;;;3.40;;
2866;SDS011;1441;48.886;8.728;2023-03-08T01:18:11;4.20;;;3.50;;
2866;SDS011;1441;48.886;8.728;2023-03-08T01:20:37;5.03;;;3.93;;
2866;SDS011;1441;48.886;8.728;2023-03-08T01:23:02;6.50;;;3.33;;
2866;SDS011;1441;48.886;8.728;2023-03-08T01:25:28;4.17;;;3.07;;
2866;SDS011;1441;48.886;8.728;2023-03-08T01:27:54;4.30;;;3.47;;
2866;SDS011;1441;48.886;8.728;2023-03-08T01:30:20;5.10;;;2.83;;
2866;SDS011;1441;48.886;8.728;2023-03-08T01:32:45;9.83;;;3.60;;
2866;SDS011;1441;48.886;8.728;2023-03-08T01:35:11;4.33;;;2.83;;
2866;SDS011;1441;48.886;8.728;2023-03-08T01:37:36;6.97;;;3.67;;
2866;SDS011;1441;48.886;8.728;2023-03-08T01:40:02;3.03;;;2.60;;
2866;SDS011;1441;48.886;8.728;2023-03-08T01:42:29;5.07;;;3.10;;
2866;SDS011;1441;48.886;8.728;2023-03-08T01:44:56;5.70;;;3.30;;
2866;SDS011;1441;48.886;8.728;2023-03-08T01:47:27;5.73;;;3.37;;
2866;SDS011;1441;48.886;8.728;2023-03-08T01:49:55;5.30;;;4.07;;
2866;SDS011;1441;48.886;8.728;2023-03-08T01:52:34;4.90;;;3.50;;
2866;SDS011;1441;48.886;8.728;2023-03-08T01:55:04;7.47;;;4.20;;
2866;SDS011;1441;48.886;8.728;2023-03-08T01:57:34;8.60;;;4.13;;
2866;SDS011;1441;48.886;8.728;2023-03-08T02:00:05;6.30;;;4.80;;
2866;SDS011;1441;48.886;8.728;2023-03-08T02:02:41;7.73;;;4.37;;
2866;SDS011;1441;48.886;8.728;2023-03-08T02:05:18;6.77;;;4.90;;
2866;SDS011;1441;48.886;8.728;2023-03-08T02:07:44;8.80;;;4.60;;
2866;SDS011;1441;48.886;8.728;2023-03-08T02:10:10;6.53;;;4.23;;
2866;SDS011;1441;48.886;8.728;2023-03-08T02:12:36;7.17;;;4.10;;
2866;SDS011;1441;48.886;8.728;2023-03-08T02:15:03;7.23;;;4.60;;
2866;SDS011;1441;48.886;8.728;2023-03-08T02:17:30;5.87;;;4.20;;
2866;SDS011;1441;48.886;8.728;2023-03-08T02:22:46;9.60;;;5.00;;
2866;SDS011;1441;48.886;8.728;2023-03-08T02:25:17;8.50;;;4.30;;
2866;SDS011;1441;48.886;8.728;2023-03-08T02:27:48;8.23;;;5.13;;
2866;SDS011;1441;48.886;8.728;2023-03-08T02:30:16;7.13;;;4.40;;
2866;SDS011;1441;48.886;8.728;2023-03-08T02:32:47;6.50;;;4.47;;
2866;SDS011;1441;48.886;8.728;2023-03-08T02:35:13;7.67;;;4.97;;
2866;SDS011;1441;48.886;8.728;2023-03-08T02:37:39;7.13;;;4.47;;
2866;SDS011;1441;48.886;8.728;2023-03-08T02:40:04;8.83;;;4.67;;
2866;SDS011;1441;48.886;8.728;2023-03-08T02:42:31;5.23;;;3.63;;
2866;SDS011;1441;48.886;8.728;2023-03-08T02:44:56;4.67;;;3.83;;
2866;SDS011;1441;48.886;8.728;2023-03-08T02:47:22;5.10;;;3.73;;
2866;SDS011;1441;48.886;8.728;2023-03-08T02:49:47;7.30;;;4.53;;
2866;SDS011;1441;48.886;8.728;2023-03-08T02:52:13;5.80;;;4.07;;
2866;SDS011;1441;48.886;8.728;2023-03-08T02:54:38;8.00;;;5.00;;
2866;SDS011;1441;48.886;8.728;2023-03-08T02:57:04;6.70;;;4.70;;
2866;SDS011;1441;48.886;8.728;2023-03-08T02:59:30;5.60;;;4.17;;
2866;SDS011;1441;48.886;8.728;2023-03-08T03:01:55;8.13;;;4.57;;
2866;SDS011;1441;48.886;8.728;2023-03-08T03:04:24;5.53;;;4.50;;
2866;SDS011;1441;48.886;8.728;2023-03-08T03:06:52;5.20;;;3.90;;
2866;SDS011;1441;48.886;8.728;2023-03-08T03:09:18;8.23;;;4.80;;
2866;SDS011;1441;48.886;8.728;2023-03-08T03:11:43;7.70;;;4.57;;
2866;SDS011;1441;48.886;8.728;2023-03-08T03:14:09;5.53;;;4.20;;
2866;SDS011;1441;48.886;8.728;2023-03-08T03:16:35;5.20;;;4.60;;
2866;SDS011;1441;48.886;8.728;2023-03-08T03:19:01;10.00;;;4.80;;
2866;SDS011;1441;48.886;8.728;2023-03-08T03:21:26;6.17;;;4.43;;
2866;SDS011;1441;48.886;8.728;2023-03-08T03:23:53;6.40;;;4.93;;
2866;SDS011;1441;48.886;8.728;2023-03-08T03:26:20;7.07;;;4.83;;
2866;SDS011;1441;48.886;8.728;2023-03-08T03:28:46;8.50;;;4.87;;
2866;SDS011;1441;48.886;8.728;2023-03-08T03:31:14;6.77;;;4.80;;
2866;SDS011;1441;48.886;8.728;2023-03-08T03:33:42;12.07;;;4.80;;
2866;SDS011;1441;48.886;8.728;2023-03-08T03:36:10;10.30;;;4.80;;
2866;SDS011;1441;48.886;8.728;2023-03-08T03:38:36;7.93;;;3.93;;
2866;SDS011;1441;48.886;8.728;2023-03-08T03:41:09;9.47;;;4.50;;
2866;SDS011;1441;48.886;8.728;2023-03-08T03:43:37;8.27;;;4.53;;
2866;SDS011;1441;48.886;8.728;2023-03-08T03:46:04;7.80;;;5.37;;
2866;SDS011;1441;48.886;8.728;2023-03-08T03:48:31;5.97;;;4.13;;
2866;SDS011;1441;48.886;8.728;2023-03-08T03:51:00;6.40;;;4.40;;
2866;SDS011;1441;48.886;8.728;2023-03-08T03:53:28;11.47;;;4.53;;
2866;SDS011;1441;48.886;8.728;2023-03-08T03:56:00;7.97;;;4.87;;
2866;SDS011;1441;48.886;8.728;2023-03-08T03:58:45;4.57;;;3.70;;
2866;SDS011;1441;48.886;8.728;2023-03-08T04:01:16;5.17;;;4.60;;
2866;SDS011;1441;48.886;8.728;2023-03-08T04:03:47;5.63;;;4.57;;
2866;SDS011;1441;48.886;8.728;2023-03-08T04:06:14;6.40;;;4.60;;
2866;SDS011;1441;48.886;8.728;2023-03-08T04:08:41;7.83;;;4.70;;
2866;SDS011;1441;48.886;8.728;2023-03-08T04:11:08;8.17;;;4.20;;
2866;SDS011;1441;48.886;8.728;2023-03-08T04:13:35;8.27;;;4.67;;
2866;SDS011;1441;48.886;8.728;2023-03-08T04:16:14;7.43;;;4.50;;
2866;SDS011;1441;48.886;8.728;2023-03-08T04:18:42;6.33;;;4.37;;
2866;SDS011;1441;48.886;8.728;2023-03-08T04:21:07;5.60;;;4.00;;
2866;SDS011;1441;48.886;8.728;2023-03-08T04:23:34;8.33;;;5.00;;
2866;SDS011;1441;48.886;8.728;2023-03-08T04:26:00;7.50;;;4.67;;
2866;SDS011;1441;48.886;8.728;2023-03-08T04:28:25;8.13;;;4.53;;
2866;SDS011;1441;48.886;8.728;2023-03-08T04:30:51;5.80;;;4.37;;
2866;SDS011;1441;48.886;8.728;2023-03-08T04:33:19;7.33;;;4.40;;
2866;SDS011;1441;48.886;8.728;2023-03-08T04:35:45;6.90;;;4.10;;
2866;SDS011;1441;48.886;8.728;2023-03-08T04:38:10;10.87;;;4.80;;
2866;SDS011;1441;48.886;8.728;2023-03-08T04:40:36;9.07;;;5.10;;
2866;SDS011;1441;48.886;8.728;2023-03-08T04:43:22;6.43;;;3.90;;
2866;SDS011;1441;48.886;8.728;2023-03-08T04:45:48;6.17;;;4.50;;
2866;SDS011;1441;48.886;8.728;2023-03-08T04:48:13;7.03;;;4.47;;
2866;SDS011;1441;48.886;8.728;2023-03-08T04:50:39;6.80;;;4.40;;
2866;SDS011;1441;48.886;8.728;2023-03-08T04:53:05;7.40;;;4.90;;
2866;SDS011;1441;48.886;8.728;2023-03-08T04:55:32;6.73;;;4.40;;
2866;SDS011;1441;48.886;8.728;2023-03-08T04:57:57;6.97;;;4.73;;
2866;SDS011;1441;48.886;8.728;2023-03-08T05:00:23;10.23;;;5.53;;
2866;SDS011;1441;48.886;8.728;2023-03-08T05:02:49;6.27;;;4.83;;
2866;SDS011;1441;48.886;8.728;2023-03-08T05:05:14;5.40;;;4.13;;
2866;SDS011;1441;48.886;8.728;2023-03-08T05:07:40;5.53;;;4.10;;
2866;SDS011;1441;48.886;8.728;2023-03-08T05:10:05;8.67;;;5.03;;
2866;SDS011;1441;48.886;8.728;2023-03-08T05:12:31;5.70;;;4.20;;
2866;SDS011;1441;48.886;8.728;2023-03-08T05:14:57;4.33;;;3.80;;
2866;SDS011;1441;48.886;8.728;2023-03-08T05:17:22;12.83;;;7.40;;
2866;SDS011;1441;48.886;8.728;2023-03-08T05:19:48;6.90;;;5.30;;
2866;SDS011;1441;48.886;8.728;2023-03-08T05:22:14;12.20;;;4.87;;
2866;SDS011;1441;48.886;8.728;2023-03-08T05:24:39;6.77;;;4.67;;
2866;SDS011;1441;48.886;8.728;2023-03-08T05:27:06;4.37;;;3.90;;
2866;SDS011;1441;48.886;8.728;2023-03-08T05:29:32;8.40;;;5.07;;
2866;SDS011;1441;48.886;8.728;2023-03-08T05:31:59;6.47;;;4.43;;
2866;SDS011;1441;48.886;8.728;2023-03-08T05:34:26;6.43;;;4.40;;
2866;SDS011;1441;48.886;8.728;2023-03-08T05:36:52;5.97;;;4.03;;
2866;SDS011;1441;48.886;8.728;2023-03-08T05:39:18;4.57;;;4.00;;
2866;SDS011;1441;48.886;8.728;2023-03-08T05:41:44;8.17;;;4.43;;
2866;SDS011;1441;48.886;8.728;2023-03-08T05:44:09;8.83;;;4.53;;
2866;SDS011;1441;48.886;8.728;2023-03-08T05:46:35;7.50;;;4.03;;
2866;SDS011;1441;48.886;8.728;2023-03-08T05:49:02;4.83;;;3.93;;
2866;SDS011;1441;48.886;8.728;2023-03-08T05:51:28;18.10;;;10.40;;
2866;SDS011;1441;48.886;8.728;2023-03-08T05:53:54;15.00;;;9.40;;
2866;SDS011;1441;48.886;8.728;2023-03-08T05:56:20;8.00;;;5.30;;
2866;SDS011;1441;48.886;8.728;2023-03-08T05:58:47;7.00;;;5.20;;
2866;SDS011;1441;48.886;8.728;2023-03-08T06:01:20;6.07;;;4.30;;
2866;SDS011;1441;48.886;8.728;2023-03-08T06:03:48;5.20;;;4.67;;
2866;SDS011;1441;48.886;8.728;2023-03-08T06:06:16;7.50;;;5.07;;
2866;SDS011;1441;48.886;8.728;2023-03-08T06:08:43;7.97;;;4.10;;
2866;SDS011;1441;48.886;8.728;2023-03-08T06:11:10;6.00;;;3.70;;
2866;SDS011;1441;48.886;8.728;2023-03-08T06:13:36;5.47;;;4.37;;
2866;SDS011;1441;48.886;8.728;2023-03-08T06:16:01;5.00;;;3.70;;
2866;SDS011;1441;48.886;8.728;2023-03-08T06:18:28;5.57;;;4.50;;
2866;SDS011;1441;48.886;8.728;2023-03-08T06:20:58;8.30;;;4.50;;
2866;SDS011;1441;48.886;8.728;2023-03-08T06:23:26;5.40;;;4.07;;
2866;SDS011;1441;48.886;8.728;2023-03-08T06:25:52;7.27;;;4.27;;
2866;SDS011;1441;48.886;8.728;2023-03-08T06:28:18;6.93;;;4.23;;
2866;SDS011;1441;48.886;8.728;2023-03-08T06:30:45;6.33;;;4.33;;
2866;SDS011;1441;48.886;8.728;2023-03-08T06:33:14;6.90;;;3.93;;
2866;SDS011;1441;48.886;8.728;2023-03-08T06:35:43;5.53;;;3.77;;
2866;SDS011;1441;48.886;8.728;2023-03-08T06:38:23;5.27;;;4.17;;
2866;SDS011;1441;48.886;8.728;2023-03-08T06:40:50;8.00;;;4.27;;
2866;SDS011;1441;48.886;8.728;2023-03-08T06:43:15;9.23;;;4.20;;
2866;SDS011;1441;48.886;8.728;2023-03-08T06:45:41;6.90;;;5.10;;
2866;SDS011;1441;48.886;8.728;2023-03-08T06:48:07;7.60;;;5.30;;
2866;SDS011;1441;48.886;8.728;2023-03-08T06:50:32;5.90;;;4.23;;
2866;SDS011;1441;48.886;8.728;2023-03-08T06:52:58;8.57;;;5.00;;
2866;SDS011;1441;48.886;8.728;2023-03-08T06:55:24;5.63;;;4.10;;
2866;SDS011;1441;48.886;8.728;2023-03-08T06:57:49;9.37;;;5.17;;
2866;SDS011;1441;48.886;8.728;2023-03-08T07:00:15;6.90;;;4.50;;
2866;SDS011;1441;48.886;8.728;2023-03-08T07:02:42;8.57;;;5.77;;
2866;SDS011;1441;48.886;8.728;2023-03-08T07:05:08;9.13;;;5.00;;
2866;SDS011;1441;48.886;8.728;2023-03-08T07:07:34;5.97;;;4.37;;
2866;SDS011;1441;48.886;8.728;2023-03-08T07:10:00;5.70;;;4.63;;
2866;SDS011;1441;48.886;8.728;2023-03-08T07:12:28;8.43;;;4.70;;
2866;SDS011;1441;48.886;8.728;2023-03-08T07:14:56;6.73;;;4.43;;
2866;SDS011;1441;48.886;8.728;2023-03-08T07:17:22;6.43;;;4.93;;
2866;SDS011;1441;48.886;8.728;2023-03-08T07:19:48;8.33;;;4.57;;
2866;SDS011;1441;48.886;8.728;2023-03-08T07:22:14;10.17;;;4.73;;
2866;SDS011;1441;48.886;8.728;2023-03-08T07:24:39;10.33;;;4.63;;
2866;SDS011;1441;48.886;8.728;2023-03-08T07:27:05;5.40;;;4.43;;
2866;SDS011;1441;48.886;8.728;2023-03-08T07:29:30;8.07;;;4.30;;
2866;SDS011;1441;48.886;8.728;2023-03-08T07:31:56;8.00;;;5.43;;
2866;SDS011;1441;48.886;8.728;2023-03-08T07:34:21;5.83;;;4.60;;
2866;SDS011;1441;48.886;8.728;2023-03-08T07:36:47;9.10;;;6.00;;
2866;SDS011;1441;48.886;8.728;2023-03-08T07:39:14;6.13;;;4.20;;
2866;SDS011;1441;48.886;8.728;2023-03-08T07:41:40;7.20;;;5.33;;
2866;SDS011;1441;48.886;8.728;2023-03-08T07:44:06;6.20;;;4.23;;
2866;SDS011;1441;48.886;8.728;2023-03-08T07:46:31;7.30;;;4.57;;
2866;SDS011;1441;48.886;8.728;2023-03-08T07:48:57;5.50;;;4.30;;
2866;SDS011;1441;48.886;8.728;2023-03-08T07:51:23;4.60;;;3.80;;
2866;SDS011;1441;48.886;8.728;2023-03-08T07:53:49;6.93;;;4.73;;
2866;SDS011;1441;48.886;8.728;2023-03-08T07:56:15;11.30;;;4.50;;
2866;SDS011;1441;48.886;8.728;2023-03-08T07:58:41;6.30;;;4.70;;
2866;SDS011;1441;48.886;8.728;2023-03-08T08:01:08;6.10;;;4.40;;
2866;SDS011;1441;48.886;8.728;2023-03-08T08:03:37;7.43;;;4.60;;
2866;SDS011;1441;48.886;8.728;2023-03-08T08:06:04;8.90;;;6.33;;
2866;SDS011;1441;48.886;8.728;2023-03-08T08:08:31;9.60;;;5.73;;
2866;SDS011;1441;48.886;8.728;2023-03-08T08:10:56;6.77;;;5.57;;
2866;SDS011;1441;48.886;8.728;2023-03-08T08:13:22;9.40;;;4.83;;
2866;SDS011;1441;48.886;8.728;2023-03-08T08:15:56;7.47;;;5.33;;
2866;SDS011;1441;48.886;8.728;2023-03-08T08:18:23;6.67;;;4.73;;
2866;SDS011;1441;48.886;8.728;2023-03-08T08:20:48;7.83;;;4.87;;
2866;SDS011;1441;48.886;8.728;2023-03-08T08:23:14;9.70;;;5.53;;
2866;SDS011;1441;48.886;8.728;2023-03-08T08:25:39;6.50;;;4.37;;
2866;SDS011;1441;48.886;8.728;2023-03-08T08:28:05;8.40;;;4.93;;
2866;SDS011;1441;48.886;8.728;2023-03-08T08:30:30;7.20;;;5.23;;
2866;SDS011;1441;48.886;8.728;2023-03-08T08:32:56;13.33;;;5.57;;
2866;SDS011;1441;48.886;8.728;2023-03-08T08:35:25;9.77;;;5.90;;
2866;SDS011;1441;48.886;8.728;2023-03-08T08:37:50;9.63;;;6.20;;
2866;SDS011;1441;48.886;8.728;2023-03-08T08:40:16;8.37;;;5.87;;
2866;SDS011;1441;48.886;8.728;2023-03-08T08:42:41;10.40;;;6.47;;
2866;SDS011;1441;48.886;8.728;2023-03-08T08:45:07;13.37;;;7.60;;
2866;SDS011;1441;48.886;8.728;2023-03-08T08:47:33;9.30;;;6.50;;
2866;SDS011;1441;48.886;8.728;2023-03-08T08:49:59;7.37;;;5.33;;
2866;SDS011;1441;48.886;8.728;2023-03-08T08:52:24;12.03;;;6.80;;
2866;SDS011;1441;48.886;8.728;2023-03-08T08:54:51;10.53;;;6.40;;
2866;SDS011;1441;48.886;8.728;2023-03-08T08:57:17;9.73;;;6.77;;
2866;SDS011;1441;48.886;8.728;2023-03-08T08:59:42;10.33;;;6.83;;
2866;SDS011;1441;48.886;8.728;2023-03-08T09:02:09;7.70;;;5.87;;
2866;SDS011;1441;48.886;8.728;2023-03-08T09:04:35;13.50;;;7.30;;
2866;SDS011;1441;48.886;8.728;2023-03-08T09:07:01;12.53;;;7.10;;
2866;SDS011;1441;48.886;8.728;2023-03-08T09:09:26;11.20;;;6.83;;
2866;SDS011;1441;48.886;8.728;2023-03-08T09:11:52;10.67;;;6.63;;
2866;SDS011;1441;48.886;8.728;2023-03-08T09:14:18;15.60;;;7.90;;
2866;SDS011;1441;48.886;8.728;2023-03-08T09:16:43;12.13;;;8.07;;
2866;SDS011;1441;48.886;8.728;2023-03-08T09:19:09;13.77;;;6.90;;
2866;SDS011;1441;48.886;8.728;2023-03-08T09:21:34;9.70;;;6.60;;
2866;SDS011;1441;48.886;8.728;2023-03-08T09:24:01;11.00;;;7.60;;
2866;SDS011;1441;48.886;8.728;2023-03-08T09:26:29;10.73;;;6.70;;
2866;SDS011;1441;48.886;8.728;2023-03-08T09:28:57;9.77;;;7.07;;
2866;SDS011;1441;48.886;8.728;2023-03-08T09:31:28;7.47;;;6.27;;
2866;SDS011;1441;48.886;8.728;2023-03-08T09:33:55;9.73;;;5.97;;
2866;SDS011;1441;48.886;8.728;2023-03-08T09:36:21;11.47;;;6.43;;
2866;SDS011;1441;48.886;8.728;2023-03-08T09:38:48;8.90;;;6.10;;
2866;SDS011;1441;48.886;8.728;2023-03-08T09:44:12;8.87;;;6.20;;
2866;SDS011;1441;48.886;8.728;2023-03-08T09:47:00;6.53;;;4.60;;
2866;SDS011;1441;48.886;8.728;2023-03-08T09:49:37;7.53;;;4.80;;
2866;SDS011;1441;48.886;8.728;2023-03-08T09:52:15;6.07;;;4.80;;
2866;SDS011;1441;48.886;8.728;2023-03-08T09:54:48;7.00;;;4.90;;
2866;SDS011;1441;48.886;8.728;2023-03-08T09:57:17;7.00;;;5.27;;
2866;SDS011;1441;48.886;8.728;2023-03-08T09:59:52;5.40;;;4.20;;
2866;SDS011;1441;48.886;8.728;2023-03-08T10:02:35;7.17;;;4.63;;
2866;SDS011;1441;48.886;8.728;2023-03-08T10:05:26;5.13;;;4.07;;
2866;SDS011;1441;48.886;8.728;2023-03-08T10:16:10;5.40;;;4.10;;
2866;SDS011;1441;48.886;8.728;2023-03-08T10:21:12;4.20;;;2.80;;
2866;SDS011;1441;48.886;8.728;2023-03-08T10:23:41;3.47;;;2.27;;
2866;SDS011;1441;48.886;8.728;2023-03-08T10:26:10;3.87;;;2.57;;
2866;SDS011;1441;48.886;8.728;2023-03-08T10:28:37;3.30;;;2.97;;
2866;SDS011;1441;48.886;8.728;2023-03-08T10:31:11;2.70;;;2.50;;
2866;SDS011;1441;48.886;8.728;2023-03-08T10:33:42;2.77;;;2.57;;
2866;SDS011;1441;48.886;8.728;2023-03-08T10:36:19;3.50;;;2.57;;
2866;SDS011;1441;48.886;8.728;2023-03-08T10:39:28;1.67;;;1.53;;
2866;SDS011;1441;48.886;8.728;2023-03-08T10:41:48;2.90;;;2.70;;
2866;SDS011;1441;48.886;8.728;2023-03-08T10:47:20;1.77;;;1.67;;
2866;SDS011;1441;48.886;8.728;2023-03-08T10:52:37;0.80;;;0.80;;
2866;SDS011;1441;48.886;8.728;2023-03-08T10:55:12;0.83;;;0.83;;
2866;SDS011;1441;48.886;8.728;2023-03-08T10:57:56;1.27;;;1.00;;
2866;SDS011;1441;48.886;8.728;2023-03-08T11:00:40;1.83;;;0.90;;
2866;SDS011;1441;48.886;8.728;2023-03-08T11:03:20;1.90;;;0.73;;
2866;SDS011;1441;48.886;8.728;2023-03-08T11:06:04;0.93;;;0.60;;
2866;SDS011;1441;48.886;8.728;2023-03-08T11:08:39;1.10;;;0.90;;
2866;SDS011;1441;48.886;8.728;2023-03-08T11:11:16;0.70;;;0.50;;
2866;SDS011;1441;48.886;8.728;2023-03-08T11:13:51;0.50;;;0.50;;
2866;SDS011;1441;48.886;8.728;2023-03-08T11:16:25;0.50;;;0.50;;
2866;SDS011;1441;48.886;8.728;2023-03-08T11:27:31;0.47;;;0.47;;
2866;SDS011;1441;48.886;8.728;2023-03-08T11:33:21;0.53;;;0.53;;
2866;SDS011;1441;48.886;8.728;2023-03-08T11:35:58;1.00;;;0.60;;
2866;SDS011;1441;48.886;8.728;2023-03-08T11:38:41;0.70;;;0.70;;
2866;SDS011;1441;48.886;8.728;2023-03-08T11:49:31;2.33;;;1.10;;
2866;SDS011;1441;48.886;8.728;2023-03-08T11:52:11;0.60;;;0.60;;
2866;SDS011;1441;48.886;8.728;2023-03-08T11:57:45;0.70;;;0.70;;
2866;SDS011;1441;48.886;8.728;2023-03-08T12:00:22;1.63;;;0.90;;
2866;SDS011;1441;48.886;8.728;2023-03-08T12:02:53;0.60;;;0.60;;
2866;SDS011;1441;48.886;8.728;2023-03-08T12:05:27;1.60;;;0.60;;
2866;SDS011;1441;48.886;8.728;2023-03-08T12:08:01;0.60;;;0.60;;
2866;SDS011;1441;48.886;8.728;2023-03-08T12:10:45;0.67;;;0.50;;
2866;SDS011;1441;48.886;8.728;2023-03-08T12:16:05;2.20;;;0.50;;
2866;SDS011;1441;48.886;8.728;2023-03-08T12:27:27;0.50;;;0.50;;
2866;SDS011;1441;48.886;8.728;2023-03-08T12:30:25;0.67;;;0.60;;
2866;SDS011;1441;48.886;8.728;2023-03-08T12:32:56;0.60;;;0.40;;
2866;SDS011;1441;48.886;8.728;2023-03-08T12:35:25;0.40;;;0.40;;
2866;SDS011;1441;48.886;8.728;2023-03-08T12:38:40;0.60;;;0.60;;
2866;SDS011;1441;48.886;8.728;2023-03-08T12:40:40;0.47;;;0.47;;
2866;SDS011;1441;48.886;8.728;2023-03-08T12:43:09;0.60;;;0.60;;
2866;SDS011;1441;48.886;8.728;2023-03-08T12:51:18;0.50;;;0.50;;
2866;SDS011;1441;48.886;8.728;2023-03-08T13:01:29;0.50;;;0.50;;
2866;SDS011;1441;48.886;8.728;2023-03-08T13:04:28;1.03;;;0.70;;
2866;SDS011;1441;48.886;8.728;2023-03-08T13:11:56;0.40;;;0.40;;
2866;SDS011;1441;48.886;8.728;2023-03-08T13:14:39;0.40;;;0.40;;
2866;SDS011;1441;48.886;8.728;2023-03-08T13:19:57;0.50;;;0.50;;
2866;SDS011;1441;48.886;8.728;2023-03-08T13:22:33;0.67;;;0.50;;
2866;SDS011;1441;48.886;8.728;2023-03-08T13:25:05;0.50;;;0.40;;
2866;SDS011;1441;48.886;8.728;2023-03-08T13:30:51;0.50;;;0.50;;
2866;SDS011;1441;48.886;8.728;2023-03-08T13:36:02;1.60;;;0.40;;
2866;SDS011;1441;48.886;8.728;2023-03-08T13:38:31;0.70;;;0.60;;
2866;SDS011;1441;48.886;8.728;2023-03-08T13:40:59;0.50;;;0.50;;
2866;SDS011;1441;48.886;8.728;2023-03-08T13:43:32;0.80;;;0.50;;
2866;SDS011;1441;48.886;8.728;2023-03-08T13:45:59;2.00;;;0.77;;
2866;SDS011;1441;48.886;8.728;2023-03-08T13:48:28;0.40;;;0.40;;
2866;SDS011;1441;48.886;8.728;2023-03-08T13:50:56;0.63;;;0.63;;
2866;SDS011;1441;48.886;8.728;2023-03-08T13:53:24;0.60;;;0.40;;
2866;SDS011;1441;48.886;8.728;2023-03-08T13:55:54;0.50;;;0.50;;
2866;SDS011;1441;48.886;8.728;2023-03-08T14:01:00;1.40;;;1.30;;
2866;SDS011;1441;48.886;8.728;2023-03-08T14:03:41;1.13;;;0.70;;
2866;SDS011;1441;48.886;8.728;2023-03-08T14:06:21;0.90;;;0.90;;
2866;SDS011;1441;48.886;8.728;2023-03-08T14:08:57;3.63;;;1.30;;
2866;SDS011;1441;48.886;8.728;2023-03-08T14:11:26;0.50;;;0.50;;
2866;SDS011;1441;48.886;8.728;2023-03-08T14:13:53;1.03;;;0.60;;
2866;SDS011;1441;48.886;8.728;2023-03-08T14:16:22;0.67;;;0.67;;
2866;SDS011;1441;48.886;8.728;2023-03-08T14:18:55;0.60;;;0.60;;
2866;SDS011;1441;48.886;8.728;2023-03-08T14:21:23;0.83;;;0.70;;
2866;SDS011;1441;48.886;8.728;2023-03-08T14:23:51;0.60;;;0.50;;
2866;SDS011;1441;48.886;8.728;2023-03-08T14:26:22;0.70;;;0.70;;
2866;SDS011;1441;48.886;8.728;2023-03-08T14:31:35;0.63;;;0.60;;
2866;SDS011;1441;48.886;8.728;2023-03-08T14:34:03;0.40;;;0.40;;
2866;SDS011;1441;48.886;8.728;2023-03-08T14:36:43;0.43;;;0.43;;
2866;SDS011;1441;48.886;8.728;2023-03-08T14:39:23;1.70;;;0.40;;
2866;SDS011;1441;48.886;8.728;2023-03-08T14:41:51;1.13;;;0.50;;
2866;SDS011;1441;48.886;8.728;2023-03-08T14:44:22;1.27;;;0.60;;
2866;SDS011;1441;48.886;8.728;2023-03-08T14:46:49;0.50;;;0.50;;
2866;SDS011;1441;48.886;8.728;2023-03-08T14:49:22;1.70;;;0.50;;
2866;SDS011;1441;48.886;8.728;2023-03-08T14:51:49;0.90;;;0.77;;
2866;SDS011;1441;48.886;8.728;2023-03-08T14:54:28;0.70;;;0.70;;
2866;SDS011;1441;48.886;8.728;2023-03-08T14:56:57;0.40;;;0.40;;
2866;SDS011;1441;48.886;8.728;2023-03-08T14:59:26;0.40;;;0.40;;
2866;SDS011;1441;48.886;8.728;2023-03-08T15:01:52;0.30;;;0.30;;
2866;SDS011;1441;48.886;8.728;2023-03-08T15:04:18;0.50;;;0.50;;
2866;SDS011;1441;48.886;8.728;2023-03-08T15:06:45;0.70;;;0.60;;
2866;SDS011;1441;48.886;8.728;2023-03-08T15:09:12;0.50;;;0.50;;
2866;SDS011;1441;48.886;8.728;2023-03-08T15:11:40;2.53;;;0.70;;
2866;SDS011;1441;48.886;8.728;2023-03-08T15:14:08;0.60;;;0.60;;
2866;SDS011;1441;48.886;8.728;2023-03-08T15:16:37;0.40;;;0.40;;
2866;SDS011;1441;48.886;8.728;2023-03-08T15:19:03;0.57;;;0.57;;
2866;SDS011;1441;48.886;8.728;2023-03-08T15:21:29;0.50;;;0.50;;
2866;SDS011;1441;48.886;8.728;2023-03-08T15:23:56;0.60;;;0.60;;
2866;SDS011;1441;48.886;8.728;2023-03-08T15:26:23;0.70;;;0.70;;
2866;SDS011;1441;48.886;8.728;2023-03-08T15:28:55;0.73;;;0.50;;
2866;SDS011;1441;48.886;8.728;2023-03-08T15:31:21;0.50;;;0.50;;
2866;SDS011;1441;48.886;8.728;2023-03-08T15:33:47;1.33;;;0.60;;
2866;SDS011;1441;48.886;8.728;2023-03-08T15:36:13;1.53;;;0.50;;
2866;SDS011;1441;48.886;8.728;2023-03-08T15:38:41;0.50;;;0.50;;
2866;SDS011;1441;48.886;8.728;2023-03-08T15:41:13;0.50;;;0.50;;
2866;SDS011;1441;48.886;8.728;2023-03-08T15:43:40;0.50;;;0.50;;
2866;SDS011;1441;48.886;8.728;2023-03-08T15:46:08;1.27;;;0.63;;
2866;SDS011;1441;48.886;8.728;2023-03-08T15:48:37;0.50;;;0.50;;
2866;SDS011;1441;48.886;8.728;2023-03-08T15:51:03;0.50;;;0.50;;
2866;SDS011;1441;48.886;8.728;2023-03-08T15:53:28;0.57;;;0.50;;
2866;SDS011;1441;48.886;8.728;2023-03-08T15:55:54;0.60;;;0.60;;
2866;SDS011;1441;48.886;8.728;2023-03-08T15:58:20;6.13;;;0.50;;
2866;SDS011;1441;48.886;8.728;2023-03-08T16:00:45;0.63;;;0.63;;
2866;SDS011;1441;48.886;8.728;2023-03-08T16:03:12;0.83;;;0.67;;
2866;SDS011;1441;48.886;8.728;2023-03-08T16:05:38;0.80;;;0.50;;
2866;SDS011;1441;48.886;8.728;2023-03-08T16:08:04;2.10;;;0.60;;
2866;SDS011;1441;48.886;8.728;2023-03-08T16:10:31;1.20;;;0.40;;
2866;SDS011;1441;48.886;8.728;2023-03-08T16:13:04;2.77;;;0.60;;
2866;SDS011;1441;48.886;8.728;2023-03-08T16:15:30;2.63;;;0.53;;
2866;SDS011;1441;48.886;8.728;2023-03-08T16:17:56;0.40;;;0.40;;
2866;SDS011;1441;48.886;8.728;2023-03-08T16:20:21;1.13;;;0.70;;
2866;SDS011;1441;48.886;8.728;2023-03-08T16:22:47;1.03;;;0.70;;
2866;SDS011;1441;48.886;8.728;2023-03-08T16:25:14;1.53;;;0.53;;
2866;SDS011;1441;48.886;8.728;2023-03-08T16:27:39;1.00;;;0.50;;
2866;SDS011;1441;48.886;8.728;2023-03-08T16:30:05;0.50;;;0.50;;
2866;SDS011;1441;48.886;8.728;2023-03-08T16:32:32;0.73;;;0.73;;
2866;SDS011;1441;48.886;8.728;2023-03-08T16:34:58;0.50;;;0.50;;
2866;SDS011;1441;48.886;8.728;2023-03-08T16:37:25;0.93;;;0.80;;
2866;SDS011;1441;48.886;8.728;2023-03-08T16:39:51;1.40;;;1.10;;
2866;SDS011;1441;48.886;8.728;2023-03-08T16:42:18;1.07;;;0.90;;
2866;SDS011;1441;48.886;8.728;2023-03-08T16:44:49;2.23;;;0.70;;
2866;SDS011;1441;48.886;8.728;2023-03-08T16:47:16;1.03;;;0.70;;
2866;SDS011;1441;48.886;8.728;2023-03-08T16:49:42;0.70;;;0.70;;
2866;SDS011;1441;48.886;8.728;2023-03-08T16:52:08;3.40;;;1.30;;